Ringgold, Nebraska
Current Conditions -  °F | °C
As of 9:53 PM on Wednesday 22 Oct 2014 (Local Time) from KLBF Reporting Station
Clear Clear  
Wind Chill: 48°   Ceiling: Unl
Heat Index: 48°   Visibility: 10mi
Dew Point: 46°   Wind: 3mph
Humidity: 93%   Direction: 60°ENE
Pressure: 30.08"   Gusts: NA
Location:  41.5681°N, 101.06°W
Report Text: KLBF 230253Z AUTO 06003KT 10SM CLR 09/08 A3008 RMK AO2 SLP182 T00890078 51020
Loading
Personal Weather Stations






























Interactive Weather Map New forecast layout! Learn more

10-Day Weather Forecast

Advertisements
Track Severe Weather on mobile